createdAt,value
2022-09-12T00:01:58.315Z,97.80
2022-09-12T00:06:01.178Z,98.00
2022-09-12T00:10:04.728Z,98.00
2022-09-12T00:14:10.298Z,97.80
2022-09-12T00:18:17.727Z,97.80
2022-09-12T00:22:20.546Z,97.80
2022-09-12T00:26:23.493Z,97.90
2022-09-12T00:30:27.648Z,97.90
2022-09-12T00:34:30.353Z,97.90
2022-09-12T00:38:38.466Z,98.10
2022-09-12T00:42:41.164Z,98.20
2022-09-12T00:46:47.918Z,98.10
2022-09-12T00:50:51.382Z,98.00
2022-09-12T00:54:58.379Z,98.40
2022-09-12T00:59:07.465Z,98.40
2022-09-12T01:03:15.169Z,98.40
2022-09-12T01:07:20.592Z,98.40
2022-09-12T01:11:24.547Z,98.40
2022-09-12T01:15:27.351Z,98.60
2022-09-12T01:20:09.156Z,98.50
2022-09-12T01:24:35.509Z,98.30
2022-09-12T01:28:55.598Z,98.40
2022-09-12T01:33:29.569Z,98.30
2022-09-12T01:37:39.261Z,98.30
2022-09-12T01:41:54.477Z,98.50
2022-09-12T01:46:02.348Z,98.40
2022-09-12T01:50:09.423Z,98.30
2022-09-12T01:54:18.302Z,98.60
2022-09-12T01:58:24.029Z,98.50
2022-09-12T02:02:31.896Z,98.40
2022-09-12T02:06:41.008Z,98.60
2022-09-12T02:10:47.366Z,98.80
2022-09-12T02:14:54.109Z,98.70
2022-09-12T02:19:00.630Z,98.60
2022-09-12T02:23:08.717Z,98.60
2022-09-12T02:27:15.774Z,98.50
2022-09-12T02:31:23.853Z,98.60
2022-09-12T02:35:34.323Z,98.40
2022-09-12T02:39:41.097Z,98.50
2022-09-12T02:43:46.731Z,98.50
2022-09-12T02:47:53.931Z,98.50
2022-09-12T02:51:57.249Z,98.40
2022-09-12T02:56:01.605Z,98.40
2022-09-12T03:00:06.908Z,98.50
2022-09-12T03:04:37.793Z,98.50
2022-09-12T03:08:51.874Z,98.70
2022-09-12T03:13:07.249Z,98.70
2022-09-12T03:17:20.083Z,98.90
2022-09-12T03:21:27.746Z,98.80
2022-09-12T03:25:36.005Z,98.90
2022-09-12T03:29:42.544Z,98.90
2022-09-12T03:33:45.747Z,98.90
2022-09-12T03:37:49.657Z,99.00
2022-09-12T03:41:52.951Z,99.00
2022-09-12T03:45:57.069Z,98.90
2022-09-12T03:49:59.786Z,98.90
2022-09-12T03:54:02.529Z,99.00
2022-09-12T03:58:05.434Z,98.90
2022-09-12T04:02:12.530Z,99.00
2022-09-12T04:06:17.295Z,99.00
2022-09-12T04:10:20.129Z,99.10
2022-09-12T04:14:22.997Z,99.10
2022-09-12T04:18:27.563Z,99.00
2022-09-12T04:22:31.911Z,99.00
2022-09-12T04:26:34.621Z,99.10
2022-09-12T04:30:38.072Z,99.10
2022-09-12T04:34:42.209Z,99.10
2022-09-12T04:38:45.820Z,99.20
2022-09-12T04:42:48.619Z,99.20
2022-09-12T04:46:52.410Z,99.30
2022-09-12T04:50:56.496Z,99.30
2022-09-12T04:54:59.216Z,99.20
2022-09-12T04:59:02.791Z,99.10
2022-09-12T05:03:05.521Z,99.20
2022-09-12T05:07:09.964Z,99.30
2022-09-12T05:11:21.514Z,99.30
2022-09-12T05:15:27.053Z,99.30
2022-09-12T05:19:31.242Z,99.40
2022-09-12T05:23:35.334Z,99.40
2022-09-12T05:27:38.071Z,99.40
2022-09-12T05:31:40.846Z,99.50
2022-09-12T05:35:43.584Z,99.40
2022-09-12T05:39:48.335Z,99.40
2022-09-12T05:43:53.671Z,99.60
2022-09-12T05:47:56.383Z,99.50
2022-09-12T05:51:59.142Z,99.40
2022-09-12T05:56:08.494Z,99.50
2022-09-12T06:00:12.721Z,99.50
2022-09-12T06:04:15.823Z,99.50
2022-09-12T06:08:18.858Z,99.40
2022-09-12T06:12:22.900Z,99.30
2022-09-12T06:16:27.824Z,99.50
2022-09-12T06:20:30.595Z,99.60
2022-09-12T06:24:33.365Z,99.70
2022-09-12T06:28:39.209Z,99.90
2022-09-12T06:32:43.226Z,99.80
2022-09-12T06:36:48.036Z,99.80
2022-09-12T06:40:51.473Z,99.70
2022-09-12T06:44:55.520Z,99.40
2022-09-12T06:48:59.440Z,98.90
2022-09-12T06:53:02.135Z,98.70
2022-09-12T06:57:05.076Z,98.30
2022-09-12T07:01:11.121Z,98.10
2022-09-12T07:05:15.087Z,97.80
2022-09-12T07:09:17.893Z,97.50
2022-09-12T07:13:21.161Z,97.00
2022-09-12T07:17:25.233Z,96.80
2022-09-12T07:21:29.610Z,96.50
2022-09-12T07:25:32.445Z,96.10
2022-09-12T07:29:37.657Z,95.60
2022-09-12T07:33:42.980Z,95.10
2022-09-12T07:37:45.783Z,94.80
2022-09-12T07:41:48.552Z,94.50
2022-09-12T07:45:56.418Z,94.40
2022-09-12T07:50:00.583Z,93.80
2022-09-12T07:54:03.536Z,92.90
2022-09-12T07:58:06.253Z,92.00
2022-09-12T08:02:17.030Z,91.70
2022-09-12T08:06:24.026Z,91.10
2022-09-12T08:10:26.775Z,90.60
2022-09-12T08:14:29.739Z,89.50
2022-09-12T08:18:33.483Z,88.80
2022-09-12T08:22:37.602Z,88.20
2022-09-12T08:26:40.328Z,86.90
2022-09-12T08:30:43.081Z,84.60
2022-09-12T08:34:45.839Z,84.80
2022-09-12T08:38:51.488Z,83.90
2022-09-12T08:43:02.613Z,82.80
2022-09-12T08:47:21.144Z,83.10
2022-09-12T08:51:24.617Z,83.90
2022-09-12T08:55:34.053Z,83.90
2022-09-12T08:59:40.776Z,82.80
2022-09-12T09:04:11.390Z,82.70
2022-09-12T09:08:45.993Z,83.00
2022-09-12T09:12:57.345Z,80.90
2022-09-12T09:17:01.495Z,80.90
2022-09-12T09:21:10.277Z,81.80
2022-09-12T09:25:22.869Z,81.10
2022-09-12T09:29:30.735Z,78.90
2022-09-12T09:33:36.118Z,79.10
2022-09-12T09:37:43.225Z,78.30
2022-09-12T09:41:55.829Z,77.70
2022-09-12T09:46:06.740Z,77.80
2022-09-12T09:50:16.537Z,75.90
2022-09-12T09:54:23.846Z,74.80
2022-09-12T09:58:31.018Z,72.00
2022-09-12T10:02:35.372Z,72.10
2022-09-12T10:06:40.101Z,71.20
2022-09-12T10:10:54.981Z,71.00
2022-09-12T10:15:00.564Z,70.60
2022-09-12T10:19:05.325Z,69.10
2022-09-12T10:23:34.859Z,68.70
2022-09-12T10:27:37.866Z,68.90
2022-09-12T10:31:48.264Z,67.90
2022-09-12T10:35:54.922Z,68.50
2022-09-12T10:40:00.085Z,68.30
2022-09-12T10:44:08.208Z,68.20
2022-09-12T10:48:26.120Z,68.00
2022-09-12T10:52:30.354Z,65.10
2022-09-12T10:56:35.581Z,65.00
2022-09-12T11:00:47.901Z,62.70
2022-09-12T11:05:03.302Z,63.20
2022-09-12T11:09:13.169Z,61.50
2022-09-12T11:13:28.166Z,62.00
2022-09-12T11:17:46.885Z,62.80
2022-09-12T11:22:05.414Z,61.90
2022-09-12T11:26:20.728Z,61.70
2022-09-12T11:30:23.473Z,60.60
2022-09-12T11:34:36.460Z,60.70
2022-09-12T11:38:58.377Z,60.30
2022-09-12T11:43:08.281Z,62.60
2022-09-12T11:47:13.911Z,61.50
2022-09-12T11:51:21.404Z,61.10
2022-09-12T11:55:28.263Z,60.90
2022-09-12T11:59:37.865Z,61.70
2022-09-12T12:03:44.135Z,62.50
2022-09-12T12:07:53.152Z,62.00
2022-09-12T12:11:58.465Z,61.70
2022-09-12T12:16:07.122Z,61.00
2022-09-12T12:20:18.583Z,60.30
2022-09-12T12:24:23.056Z,59.80
2022-09-12T12:28:59.636Z,60.90
2022-09-12T12:33:28.190Z,60.50
2022-09-12T12:37:53.846Z,59.40
2022-09-12T12:41:56.591Z,59.90
2022-09-12T12:46:05.748Z,61.10
2022-09-12T12:50:23.827Z,61.00
2022-09-12T12:54:32.862Z,59.70
2022-09-12T12:58:38.668Z,60.70
2022-09-12T13:02:50.932Z,59.30
2022-09-12T13:07:05.793Z,60.20
2022-09-12T13:11:15.043Z,59.50
2022-09-12T13:15:48.887Z,58.60
2022-09-12T13:20:16.836Z,58.20
2022-09-12T13:24:18.805Z,57.90
2022-09-12T13:28:21.537Z,58.20
2022-09-12T13:32:24.949Z,58.70
2022-09-12T13:36:55.438Z,57.70
2022-09-12T13:41:18.424Z,57.50
2022-09-12T13:45:23.203Z,57.10
2022-09-12T13:49:32.905Z,57.60
2022-09-12T13:53:45.181Z,57.10
2022-09-12T13:57:58.091Z,57.20
2022-09-12T14:02:00.926Z,56.90
2022-09-12T14:06:06.191Z,56.20
2022-09-12T14:10:09.652Z,55.30
2022-09-12T14:14:21.910Z,56.00
2022-09-12T14:18:27.128Z,55.50
2022-09-12T14:22:30.440Z,55.10
2022-09-12T14:26:36.381Z,55.80
2022-09-12T14:30:40.747Z,55.30
2022-09-12T14:34:43.895Z,55.70
2022-09-12T14:38:52.532Z,54.60
2022-09-12T14:42:59.273Z,55.40
2022-09-12T14:47:16.402Z,55.10
2022-09-12T14:51:23.194Z,54.10
2022-09-12T14:55:30.462Z,54.60
2022-09-12T14:59:40.174Z,53.20
2022-09-12T15:08:01.451Z,75.50
2022-09-12T15:12:04.174Z,53.30
2022-09-12T15:16:11.618Z,52.80
2022-09-12T15:20:16.452Z,52.50
2022-09-12T15:24:19.300Z,51.60
2022-09-12T15:28:24.827Z,52.50
2022-09-12T15:32:30.235Z,52.90
2022-09-12T15:36:34.276Z,50.70
2022-09-12T15:40:39.286Z,50.70
2022-09-12T15:44:42.270Z,50.70
2022-09-12T15:48:45.124Z,51.40
2022-09-12T15:52:49.294Z,50.20
2022-09-12T15:56:52.356Z,51.80
2022-09-12T16:00:55.129Z,51.20
2022-09-12T16:04:57.897Z,51.30
2022-09-12T16:09:02.291Z,51.90
2022-09-12T16:13:05.190Z,52.60
2022-09-12T16:17:08.037Z,53.10
2022-09-12T16:21:14.952Z,52.70
2022-09-12T16:25:19.676Z,52.80
2022-09-12T16:29:22.491Z,52.40
2022-09-12T16:33:25.685Z,53.60
2022-09-12T16:37:28.777Z,53.60
2022-09-12T16:41:32.830Z,54.10
2022-09-12T16:45:35.711Z,53.50
2022-09-12T16:49:38.445Z,53.70
2022-09-12T16:53:41.185Z,53.90
2022-09-12T16:57:45.888Z,55.00
2022-09-12T17:01:48.675Z,55.20
2022-09-12T17:05:58.865Z,55.10
2022-09-12T17:10:01.574Z,55.90
2022-09-12T17:14:08.141Z,56.20
2022-09-12T17:18:11.318Z,56.30
2022-09-12T17:22:14.118Z,57.10
2022-09-12T17:26:17.478Z,57.30
2022-09-12T17:30:21.971Z,57.90
2022-09-12T17:34:24.950Z,57.90
2022-09-12T17:38:27.839Z,58.50
2022-09-12T17:42:31.496Z,58.60
2022-09-12T17:46:37.481Z,59.00
2022-09-12T17:50:41.729Z,59.10
2022-09-12T17:54:45.049Z,59.40
2022-09-12T17:58:47.977Z,60.20
2022-09-12T18:02:52.074Z,60.40
2022-09-12T18:06:54.833Z,60.70
2022-09-12T18:11:05.158Z,61.30
2022-09-12T18:15:09.309Z,61.70
2022-09-12T18:19:13.980Z,62.10
2022-09-12T18:23:16.673Z,62.70
2022-09-12T18:27:19.578Z,63.20
2022-09-12T18:31:24.557Z,63.50
2022-09-12T18:35:28.786Z,63.60
2022-09-12T18:39:34.079Z,63.50
2022-09-12T18:43:37.354Z,63.80
2022-09-12T18:47:40.132Z,64.10
2022-09-12T18:51:44.489Z,64.10
2022-09-12T18:55:47.207Z,64.20
2022-09-12T18:59:49.983Z,64.40
2022-09-12T19:03:53.416Z,64.50
2022-09-12T19:07:57.727Z,64.50
2022-09-12T19:12:00.960Z,64.90
2022-09-12T19:16:06.039Z,64.80
2022-09-12T19:20:10.347Z,65.20
2022-09-12T19:24:16.356Z,65.20
2022-09-12T19:28:19.125Z,65.30
2022-09-12T19:32:22.425Z,65.60
2022-09-12T19:36:44.219Z,65.90
2022-09-12T19:40:58.993Z,65.90
2022-09-12T19:45:01.935Z,66.40
2022-09-12T19:49:05.136Z,66.60
2022-09-12T19:53:08.568Z,66.70
2022-09-12T19:57:15.700Z,66.80
2022-09-12T20:01:20.158Z,67.00
2022-09-12T20:05:23.139Z,67.00
2022-09-12T20:09:25.846Z,67.20
2022-09-12T20:13:30.100Z,67.20
2022-09-12T20:17:32.866Z,67.30
2022-09-12T20:21:36.039Z,67.60
2022-09-12T20:25:38.922Z,67.60
2022-09-12T20:29:45.499Z,67.50
2022-09-12T20:33:51.711Z,67.80
2022-09-12T20:37:54.906Z,68.00
2022-09-12T20:41:57.584Z,67.90
2022-09-12T20:46:06.172Z,68.00
2022-09-12T20:50:09.794Z,67.80
2022-09-12T20:54:13.011Z,67.90
2022-09-12T20:58:15.734Z,68.00
2022-09-12T21:02:19.934Z,68.00
2022-09-12T21:06:23.094Z,68.20
2022-09-12T21:10:25.902Z,68.40
2022-09-12T21:14:28.592Z,68.60
2022-09-12T21:18:34.168Z,68.70
2022-09-12T21:22:36.893Z,69.00
2022-09-12T21:26:39.602Z,69.30
2022-09-12T21:30:42.582Z,69.30
2022-09-12T21:34:46.762Z,69.50
2022-09-12T21:38:49.480Z,69.50
2022-09-12T21:42:52.269Z,69.50
2022-09-12T21:46:54.969Z,69.40
2022-09-12T21:50:59.590Z,69.50
2022-09-12T21:55:04.860Z,69.70
2022-09-12T21:59:07.593Z,69.60
2022-09-12T22:03:11.372Z,69.60
2022-09-12T22:07:15.608Z,69.70
2022-09-12T22:11:19.024Z,69.70
2022-09-12T22:19:45.024Z,69.90
2022-09-12T22:24:07.102Z,70.00
2022-09-12T22:28:09.773Z,70.20
2022-09-12T22:32:13.586Z,70.30
2022-09-12T22:36:16.353Z,70.50
2022-09-12T22:40:20.609Z,70.50
2022-09-12T22:44:23.345Z,70.60
2022-09-12T22:48:26.103Z,70.60
2022-09-12T22:52:28.862Z,70.80
2022-09-12T22:56:33.244Z,70.90
2022-09-12T23:00:36.233Z,70.80
2022-09-12T23:04:39.002Z,70.90
2022-09-12T23:08:41.759Z,71.00
2022-09-12T23:12:45.854Z,71.00
2022-09-12T23:16:48.635Z,71.00
2022-09-12T23:20:58.096Z,71.20
2022-09-12T23:25:00.818Z,70.80
2022-09-12T23:29:05.625Z,70.90
2022-09-12T23:33:08.410Z,70.80
2022-09-12T23:37:11.130Z,70.90
2022-09-12T23:41:15.138Z,71.00
2022-09-12T23:45:19.247Z,71.00
2022-09-12T23:49:21.947Z,71.30
2022-09-12T23:53:25.338Z,71.50
2022-09-12T23:57:28.500Z,71.70
